createdAt,value
2019-04-30T00:02:17.742Z,8.40
2019-04-30T00:04:48.869Z,8.20
2019-04-30T00:07:19.177Z,8.20
2019-04-30T00:09:49.219Z,8.20
2019-04-30T00:12:20.438Z,8.20
2019-04-30T00:14:49.613Z,8.20
2019-04-30T00:17:19.801Z,8.30
2019-04-30T00:19:50.392Z,8.30
2019-04-30T00:22:31.035Z,8.20
2019-04-30T00:24:50.950Z,8.20
2019-04-30T00:27:21.121Z,8.20
2019-04-30T00:29:50.998Z,8.10
2019-04-30T00:32:20.349Z,8.10
2019-04-30T00:34:49.535Z,8.20
2019-04-30T00:37:19.060Z,8.20
2019-04-30T00:39:50.839Z,8.20
2019-04-30T00:42:24.484Z,8.20
2019-04-30T00:44:49.981Z,8.10
2019-04-30T00:47:19.190Z,8.10
2019-04-30T00:49:52.233Z,8.10
2019-04-30T00:52:19.169Z,8.00
2019-04-30T00:54:48.254Z,7.90
2019-04-30T00:57:17.675Z,7.90
2019-04-30T00:59:48.079Z,7.90
2019-04-30T01:02:36.453Z,7.90
2019-04-30T01:05:10.537Z,7.80
2019-04-30T01:07:48.003Z,7.80
2019-04-30T01:10:12.201Z,7.80
2019-04-30T01:12:47.087Z,7.80
2019-04-30T01:15:14.525Z,7.80
2019-04-30T01:17:45.336Z,7.80
2019-04-30T01:20:13.835Z,7.80
2019-04-30T01:22:43.001Z,7.80
2019-04-30T01:25:13.477Z,7.70
2019-04-30T01:27:45.740Z,7.70
2019-04-30T01:30:18.729Z,7.80
2019-04-30T01:32:52.147Z,7.70
2019-04-30T01:35:18.652Z,7.70
2019-04-30T01:37:48.769Z,7.70
2019-04-30T01:40:19.021Z,7.60
2019-04-30T01:42:51.802Z,7.60
2019-04-30T01:45:23.131Z,7.50
2019-04-30T01:47:50.257Z,7.50
2019-04-30T01:50:19.538Z,7.50
2019-04-30T01:52:54.875Z,7.40
2019-04-30T01:55:39.006Z,7.40
2019-04-30T01:58:19.380Z,7.30
2019-04-30T02:00:52.027Z,7.20
2019-04-30T02:03:21.210Z,7.20
2019-04-30T02:05:50.379Z,7.20
2019-04-30T02:08:19.747Z,7.30
2019-04-30T02:10:51.316Z,7.30
2019-04-30T02:13:19.941Z,7.30
2019-04-30T02:15:49.317Z,7.20
2019-04-30T02:18:19.522Z,7.20
2019-04-30T02:20:49.653Z,7.20
2019-04-30T02:23:19.588Z,7.20
2019-04-30T02:25:49.117Z,7.20
2019-04-30T02:28:19.021Z,7.20
2019-04-30T02:30:50.411Z,7.20
2019-04-30T02:33:20.158Z,7.20
2019-04-30T02:36:06.537Z,7.20
2019-04-30T02:38:39.598Z,7.20
2019-04-30T02:41:09.864Z,7.20
2019-04-30T02:43:39.909Z,7.10
2019-04-30T02:46:09.714Z,7.10
2019-04-30T02:48:39.933Z,7.00
2019-04-30T02:51:10.172Z,7.00
2019-04-30T02:54:09.538Z,7.00
2019-04-30T02:56:40.054Z,6.90
2019-04-30T02:59:10.426Z,6.90
2019-04-30T03:01:40.401Z,6.80
2019-04-30T03:04:10.224Z,6.80
2019-04-30T03:06:40.279Z,6.80
2019-04-30T03:09:10.667Z,6.80
2019-04-30T03:11:40.951Z,6.80
2019-04-30T03:14:10.978Z,6.90
2019-04-30T03:17:01.967Z,6.90
2019-04-30T03:19:50.190Z,7.00
2019-04-30T03:22:21.065Z,7.00
2019-04-30T03:24:50.346Z,6.90
2019-04-30T03:27:20.660Z,6.90
2019-04-30T03:29:50.780Z,6.90
2019-04-30T03:32:22.127Z,6.90
2019-04-30T03:34:51.973Z,7.00
2019-04-30T03:37:21.463Z,6.90
2019-04-30T03:39:50.622Z,6.90
2019-04-30T03:42:20.103Z,6.90
2019-04-30T03:44:49.670Z,6.80
2019-04-30T03:47:20.138Z,6.80
2019-04-30T03:49:50.065Z,6.70
2019-04-30T03:52:20.021Z,6.60
2019-04-30T03:54:49.615Z,6.60
2019-04-30T03:57:20.569Z,6.60
2019-04-30T03:59:50.107Z,6.60
2019-04-30T04:02:40.517Z,6.60
2019-04-30T04:05:20.153Z,6.60
2019-04-30T04:08:09.417Z,6.70
2019-04-30T04:11:02.649Z,6.60
2019-04-30T04:13:33.113Z,6.60
2019-04-30T04:16:02.743Z,6.60
2019-04-30T04:18:32.002Z,6.60
2019-04-30T04:21:12.123Z,6.60
2019-04-30T04:23:32.889Z,6.60
2019-04-30T04:26:02.362Z,6.70
2019-04-30T04:28:31.568Z,6.60
2019-04-30T04:31:00.837Z,6.70
2019-04-30T04:33:29.960Z,6.70
2019-04-30T04:35:59.741Z,6.70
2019-04-30T04:38:30.337Z,6.80
2019-04-30T04:41:03.083Z,6.80
2019-04-30T04:43:30.567Z,6.80
2019-04-30T04:45:59.755Z,6.90
2019-04-30T04:48:29.767Z,6.90
2019-04-30T04:51:00.127Z,7.00
2019-04-30T04:53:30.433Z,7.00
2019-04-30T04:55:59.991Z,7.10
2019-04-30T04:58:30.226Z,7.20
2019-04-30T05:00:59.655Z,7.20
2019-04-30T05:03:34.762Z,7.20
2019-04-30T05:06:03.934Z,7.20
2019-04-30T05:08:33.110Z,7.30
2019-04-30T05:11:02.246Z,7.20
2019-04-30T05:13:31.391Z,7.30
2019-04-30T05:16:00.586Z,7.30
2019-04-30T05:18:29.750Z,7.30
2019-04-30T05:20:59.117Z,7.30
2019-04-30T05:23:29.890Z,7.40
2019-04-30T05:25:59.093Z,7.40
2019-04-30T05:28:29.981Z,7.50
2019-04-30T05:30:59.449Z,7.50
2019-04-30T05:33:28.862Z,7.50
2019-04-30T05:35:59.433Z,7.70
2019-04-30T05:38:31.232Z,7.70
2019-04-30T05:40:59.693Z,7.80
2019-04-30T05:43:29.035Z,7.80
2019-04-30T05:45:58.785Z,7.80
2019-04-30T05:48:28.577Z,7.90
2019-04-30T05:50:59.137Z,7.90
2019-04-30T05:53:28.796Z,8.50
2019-04-30T05:55:59.393Z,8.60
2019-04-30T05:58:30.017Z,8.50
2019-04-30T06:00:59.784Z,10.00
2019-04-30T06:03:33.066Z,11.50
2019-04-30T06:06:01.254Z,11.10
2019-04-30T06:08:39.295Z,10.60
2019-04-30T06:11:30.579Z,10.20
2019-04-30T06:14:28.675Z,10.00
2019-04-30T06:17:09.746Z,9.90
2019-04-30T06:19:39.347Z,9.80
2019-04-30T06:22:10.790Z,9.80
2019-04-30T06:24:39.651Z,9.80
2019-04-30T06:27:10.786Z,9.90
2019-04-30T06:29:39.778Z,11.40
2019-04-30T06:32:08.894Z,12.40
2019-04-30T06:34:41.607Z,13.20
2019-04-30T06:37:09.627Z,13.60
2019-04-30T06:39:39.234Z,13.90
2019-04-30T06:42:12.676Z,14.30
2019-04-30T06:44:41.845Z,14.40
2019-04-30T06:47:10.265Z,14.50
2019-04-30T06:49:39.433Z,14.50
2019-04-30T06:52:20.253Z,14.30
2019-04-30T06:54:39.832Z,14.30
2019-04-30T06:57:11.807Z,14.60
2019-04-30T06:59:40.025Z,14.70
2019-04-30T07:02:09.316Z,14.10
2019-04-30T07:04:40.172Z,13.50
2019-04-30T07:07:09.759Z,12.80
2019-04-30T07:09:58.389Z,12.60
2019-04-30T07:12:39.063Z,12.40
2019-04-30T07:15:08.695Z,12.20
2019-04-30T07:17:40.485Z,12.10
2019-04-30T07:20:10.460Z,12.10
2019-04-30T07:22:45.198Z,12.10
2019-04-30T07:25:10.453Z,12.20
2019-04-30T07:27:40.178Z,12.30
2019-04-30T07:30:10.092Z,12.40
2019-04-30T07:32:43.911Z,12.50
2019-04-30T07:35:13.114Z,12.70
2019-04-30T07:37:42.306Z,13.10
2019-04-30T07:40:11.505Z,13.30
2019-04-30T07:42:44.856Z,13.60
2019-04-30T07:45:11.454Z,13.80
2019-04-30T07:47:40.646Z,14.00
2019-04-30T07:50:10.713Z,14.10
2019-04-30T07:52:57.700Z,14.40
2019-04-30T07:55:11.362Z,14.60
2019-04-30T07:57:40.657Z,14.70
2019-04-30T08:00:10.523Z,14.80
2019-04-30T08:02:45.046Z,15.20
2019-04-30T08:05:20.206Z,15.50
2019-04-30T08:07:49.399Z,15.70
2019-04-30T08:10:19.114Z,15.80
2019-04-30T08:12:50.593Z,16.10
2019-04-30T08:15:19.769Z,16.30
2019-04-30T08:18:02.270Z,16.30
2019-04-30T08:20:39.352Z,16.20
2019-04-30T08:23:20.183Z,16.40
2019-04-30T08:25:39.534Z,16.60
2019-04-30T08:28:09.366Z,16.50
2019-04-30T08:30:39.178Z,16.40
2019-04-30T08:33:09.405Z,16.40
2019-04-30T08:35:39.800Z,16.80
2019-04-30T08:38:10.786Z,17.00
2019-04-30T08:40:52.804Z,17.10
2019-04-30T08:43:11.149Z,17.20
2019-04-30T08:45:40.245Z,17.60
2019-04-30T08:48:09.353Z,17.80
2019-04-30T08:50:39.414Z,18.00
2019-04-30T08:53:10.905Z,17.90
2019-04-30T08:55:39.989Z,17.90
2019-04-30T08:58:12.525Z,18.10
2019-04-30T09:00:40.139Z,18.10
2019-04-30T09:03:09.456Z,17.90
2019-04-30T09:06:16.232Z,17.80
2019-04-30T09:08:46.307Z,17.90
2019-04-30T09:11:24.655Z,18.30
2019-04-30T09:13:46.342Z,18.50
2019-04-30T09:16:15.710Z,18.60
2019-04-30T09:18:44.933Z,19.00
2019-04-30T09:21:14.193Z,19.10
2019-04-30T09:23:50.000Z,19.30
2019-04-30T09:26:14.182Z,19.50
2019-04-30T09:28:43.357Z,19.80
2019-04-30T09:31:12.557Z,19.80
2019-04-30T09:33:41.650Z,20.10
2019-04-30T09:36:10.762Z,20.20
2019-04-30T09:38:39.946Z,20.20
2019-04-30T09:41:09.410Z,20.10
2019-04-30T09:43:40.476Z,20.10
2019-04-30T09:46:22.159Z,20.00
2019-04-30T09:48:40.629Z,19.90
2019-04-30T09:51:11.002Z,19.60
2019-04-30T09:53:40.917Z,19.70
2019-04-30T09:56:10.154Z,19.80
2019-04-30T09:58:39.418Z,19.50
2019-04-30T10:01:09.444Z,19.50
2019-04-30T10:03:39.492Z,19.50
2019-04-30T10:06:09.306Z,19.50
2019-04-30T10:08:47.809Z,19.50
2019-04-30T10:11:31.075Z,19.20
2019-04-30T10:14:00.238Z,19.00
2019-04-30T10:16:51.650Z,18.70
2019-04-30T10:19:20.857Z,18.70
2019-04-30T10:21:50.029Z,18.60
2019-04-30T10:24:19.729Z,18.70
2019-04-30T10:26:49.096Z,18.60
2019-04-30T10:29:19.069Z,18.50
2019-04-30T10:31:48.989Z,18.50
2019-04-30T10:34:18.373Z,18.00
2019-04-30T10:36:49.464Z,17.90
2019-04-30T10:39:19.179Z,17.80
2019-04-30T10:41:49.174Z,17.50
2019-04-30T10:44:18.780Z,17.10
2019-04-30T10:46:48.125Z,16.80
2019-04-30T10:49:19.209Z,16.80
2019-04-30T10:51:48.170Z,16.70
2019-04-30T10:54:25.724Z,16.50
2019-04-30T10:56:49.087Z,16.40
2019-04-30T10:59:19.237Z,16.40
2019-04-30T11:01:49.291Z,16.30
2019-04-30T11:04:19.554Z,16.30
2019-04-30T11:06:48.773Z,16.20
2019-04-30T11:09:17.969Z,16.40
2019-04-30T11:11:47.140Z,16.30
2019-04-30T11:14:16.431Z,16.30
2019-04-30T11:16:45.752Z,16.50
2019-04-30T11:19:15.376Z,16.40
2019-04-30T11:21:44.919Z,16.30
2019-04-30T11:24:14.331Z,16.20
2019-04-30T11:26:44.605Z,16.00
2019-04-30T11:29:14.482Z,16.30
2019-04-30T11:32:01.948Z,16.40
2019-04-30T11:34:31.315Z,16.50
2019-04-30T11:37:00.483Z,16.40
2019-04-30T11:39:29.927Z,16.50
2019-04-30T11:41:59.046Z,16.70
2019-04-30T11:44:31.335Z,16.90
2019-04-30T11:47:30.060Z,17.00
2019-04-30T11:49:59.234Z,16.70
2019-04-30T11:52:28.410Z,16.60
2019-04-30T11:54:59.492Z,16.60
2019-04-30T11:57:29.793Z,16.70
2019-04-30T11:59:59.373Z,16.80
2019-04-30T12:02:33.110Z,16.90
2019-04-30T12:05:05.039Z,17.10
2019-04-30T12:08:00.175Z,17.20
2019-04-30T12:11:00.536Z,17.40
2019-04-30T12:13:31.180Z,17.20
2019-04-30T12:16:00.363Z,17.20
2019-04-30T12:18:29.542Z,17.20
2019-04-30T12:20:58.642Z,17.30
2019-04-30T12:23:27.824Z,17.20
2019-04-30T12:25:59.407Z,17.20
2019-04-30T12:28:29.551Z,17.30
2019-04-30T12:30:58.925Z,17.30
2019-04-30T12:33:28.469Z,17.20
2019-04-30T12:35:59.598Z,16.90
2019-04-30T12:38:29.907Z,16.80
2019-04-30T12:40:59.167Z,16.80
2019-04-30T12:43:28.337Z,16.90
2019-04-30T12:46:03.307Z,16.90
2019-04-30T12:48:40.291Z,16.90
2019-04-30T12:51:28.166Z,17.00
2019-04-30T12:54:01.175Z,17.00
2019-04-30T12:56:39.154Z,17.10
2019-04-30T12:59:08.334Z,17.10
2019-04-30T13:01:39.761Z,17.10
2019-04-30T13:04:09.826Z,17.00
2019-04-30T13:06:39.401Z,17.00
2019-04-30T13:09:11.242Z,17.20
2019-04-30T13:11:41.482Z,17.10
2019-04-30T13:14:11.726Z,16.90
2019-04-30T13:16:41.497Z,16.80
2019-04-30T13:19:10.654Z,16.80
2019-04-30T13:21:39.818Z,16.80
2019-04-30T13:24:09.039Z,16.80
2019-04-30T13:26:39.685Z,16.80
2019-04-30T13:29:14.170Z,16.80
2019-04-30T13:31:43.346Z,16.80
2019-04-30T13:34:30.112Z,16.80
2019-04-30T13:36:59.422Z,16.80
2019-04-30T13:39:33.931Z,16.70
2019-04-30T13:42:20.438Z,16.80
2019-04-30T13:44:49.353Z,16.90
2019-04-30T13:47:19.248Z,16.80
2019-04-30T13:49:49.528Z,16.80
2019-04-30T13:52:19.372Z,16.70
2019-04-30T13:54:48.583Z,16.70
2019-04-30T13:57:17.746Z,16.70
2019-04-30T13:59:46.863Z,16.80
2019-04-30T14:02:15.953Z,16.70
2019-04-30T14:05:04.090Z,16.70
2019-04-30T14:07:59.842Z,16.80
2019-04-30T14:10:30.688Z,16.90
2019-04-30T14:13:01.324Z,16.90
2019-04-30T14:15:30.490Z,16.80
2019-04-30T14:17:59.780Z,16.90
2019-04-30T14:20:28.950Z,16.80
2019-04-30T14:22:58.175Z,16.70
2019-04-30T14:25:27.360Z,16.70
2019-04-30T14:27:56.518Z,16.70
2019-04-30T14:30:25.681Z,16.70
2019-04-30T14:32:54.875Z,16.50
2019-04-30T14:35:24.050Z,16.50
2019-04-30T14:37:53.228Z,16.40
2019-04-30T14:40:22.980Z,16.50
2019-04-30T14:43:09.870Z,16.60
2019-04-30T14:45:47.900Z,16.50
2019-04-30T14:48:24.477Z,16.50
2019-04-30T14:50:54.290Z,16.60
2019-04-30T14:53:30.554Z,16.60
2019-04-30T14:56:34.010Z,16.90
2019-04-30T14:59:25.130Z,17.00
2019-04-30T15:02:02.521Z,17.00
2019-04-30T15:04:31.699Z,17.20
2019-04-30T15:07:00.789Z,17.50
2019-04-30T15:09:29.978Z,17.60
2019-04-30T15:11:59.254Z,17.60
2019-04-30T15:14:28.342Z,17.40
2019-04-30T15:16:57.457Z,17.20
2019-04-30T15:19:26.550Z,17.20
2019-04-30T15:21:55.657Z,17.20
2019-04-30T15:24:29.410Z,17.30
2019-04-30T15:26:58.566Z,17.40
2019-04-30T15:29:29.095Z,17.50
2019-04-30T15:31:59.300Z,17.60
2019-04-30T15:34:29.376Z,17.80
2019-04-30T15:36:59.169Z,18.10
2019-04-30T15:39:39.493Z,18.10
2019-04-30T15:42:08.953Z,18.00
2019-04-30T15:44:45.376Z,18.10
2019-04-30T15:47:09.283Z,18.30
2019-04-30T15:49:38.549Z,18.30
2019-04-30T15:52:21.516Z,18.30
2019-04-30T15:54:50.754Z,18.30
2019-04-30T15:57:19.958Z,18.30
2019-04-30T15:59:49.157Z,18.50
2019-04-30T16:02:53.683Z,18.50
2019-04-30T16:05:32.131Z,18.40
2019-04-30T16:08:10.474Z,18.30
2019-04-30T16:11:10.406Z,18.20
2019-04-30T16:13:56.132Z,18.20
2019-04-30T16:16:27.427Z,18.10
2019-04-30T16:18:56.638Z,17.90
2019-04-30T16:21:25.842Z,17.60
2019-04-30T16:23:55.070Z,17.80
2019-04-30T16:26:24.318Z,17.80
2019-04-30T16:28:53.522Z,17.50
2019-04-30T16:31:22.786Z,17.50
2019-04-30T16:33:51.998Z,17.30
2019-04-30T16:36:21.201Z,17.30
2019-04-30T16:38:51.279Z,17.20
2019-04-30T16:41:31.170Z,17.20
2019-04-30T16:43:51.362Z,17.20
2019-04-30T16:46:20.537Z,17.10
2019-04-30T16:48:49.641Z,17.10
2019-04-30T16:51:18.936Z,17.10
2019-04-30T16:53:48.681Z,17.00
2019-04-30T16:56:18.605Z,17.00
2019-04-30T16:59:00.143Z,16.90
2019-04-30T17:01:29.892Z,16.70
2019-04-30T17:04:11.132Z,16.50
2019-04-30T17:06:43.113Z,16.50
2019-04-30T17:09:18.349Z,16.30
2019-04-30T17:12:05.189Z,16.20
2019-04-30T17:14:35.337Z,16.20
2019-04-30T17:17:04.581Z,16.20
2019-04-30T17:19:33.778Z,16.10
2019-04-30T17:22:02.954Z,16.10
2019-04-30T17:24:32.178Z,16.10
2019-04-30T17:27:01.290Z,16.00
2019-04-30T17:29:30.486Z,15.90
2019-04-30T17:31:59.678Z,15.80
2019-04-30T17:34:30.806Z,15.60
2019-04-30T17:36:59.678Z,15.70
2019-04-30T17:39:29.062Z,15.70
2019-04-30T17:41:58.250Z,15.60
2019-04-30T17:44:28.937Z,15.70
2019-04-30T17:46:59.977Z,15.80
2019-04-30T17:49:28.962Z,15.80
2019-04-30T17:51:59.179Z,15.70
2019-04-30T17:54:28.514Z,15.60
2019-04-30T17:56:57.722Z,15.40
2019-04-30T17:59:26.893Z,15.30
2019-04-30T18:02:00.278Z,15.20
2019-04-30T18:04:29.813Z,15.10
2019-04-30T18:07:05.131Z,15.00
2019-04-30T18:09:34.438Z,15.00
2019-04-30T18:12:03.626Z,14.90
2019-04-30T18:14:32.889Z,14.90
2019-04-30T18:17:02.098Z,14.80
2019-04-30T18:19:50.219Z,14.70
2019-04-30T18:22:33.506Z,14.60
2019-04-30T18:25:12.016Z,14.60
2019-04-30T18:27:49.461Z,14.60
2019-04-30T18:30:21.516Z,14.60
2019-04-30T18:32:50.715Z,14.60
2019-04-30T18:35:20.394Z,14.70
2019-04-30T18:37:49.922Z,14.70
2019-04-30T18:40:19.235Z,14.70
2019-04-30T18:42:49.438Z,14.60
2019-04-30T18:45:19.521Z,14.60
2019-04-30T18:47:48.925Z,14.60
2019-04-30T18:50:18.338Z,14.70
2019-04-30T18:52:50.361Z,14.60
2019-04-30T18:55:19.273Z,14.60
2019-04-30T18:57:56.312Z,14.40
2019-04-30T19:00:29.388Z,14.40
2019-04-30T19:02:58.697Z,14.20
2019-04-30T19:05:29.393Z,14.00
2019-04-30T19:08:04.458Z,13.80
2019-04-30T19:10:53.722Z,13.80
2019-04-30T19:13:50.968Z,13.70
2019-04-30T19:16:30.723Z,13.70
2019-04-30T19:19:09.387Z,13.60
2019-04-30T19:21:40.416Z,13.60
2019-04-30T19:24:09.816Z,13.70
2019-04-30T19:26:38.993Z,13.70
2019-04-30T19:29:08.182Z,13.70
2019-04-30T19:31:39.364Z,13.60
2019-04-30T19:34:09.759Z,13.60
2019-04-30T19:36:40.729Z,13.50
2019-04-30T19:39:11.706Z,13.50
2019-04-30T19:41:40.930Z,13.50
2019-04-30T19:44:10.123Z,13.50
2019-04-30T19:46:39.274Z,13.30
2019-04-30T19:49:09.801Z,13.30
2019-04-30T19:51:40.203Z,13.20
2019-04-30T19:54:11.361Z,13.20
2019-04-30T19:56:40.651Z,13.20
2019-04-30T19:59:09.894Z,13.20
2019-04-30T20:01:39.195Z,13.20
2019-04-30T20:04:09.825Z,13.10
2019-04-30T20:06:39.122Z,13.00
2019-04-30T20:09:08.918Z,13.10
2019-04-30T20:11:39.798Z,13.00
2019-04-30T20:14:10.432Z,12.80
2019-04-30T20:16:40.264Z,12.90
2019-04-30T20:19:09.591Z,12.80
2019-04-30T20:21:48.141Z,12.80
2019-04-30T20:24:09.781Z,12.60
2019-04-30T20:26:39.101Z,12.50
2019-04-30T20:29:08.974Z,12.60
2019-04-30T20:31:38.627Z,12.60
2019-04-30T20:34:09.157Z,12.50
2019-04-30T20:36:38.875Z,12.40
2019-04-30T20:39:26.144Z,12.30
2019-04-30T20:41:55.825Z,12.20
2019-04-30T20:44:25.025Z,12.10
2019-04-30T20:46:54.197Z,12.10
2019-04-30T20:49:23.317Z,12.10
2019-04-30T20:51:55.719Z,12.10
2019-04-30T20:54:24.213Z,12.10
2019-04-30T20:56:53.397Z,12.20
2019-04-30T20:59:22.583Z,12.10
2019-04-30T21:01:51.691Z,12.00
2019-04-30T21:04:21.055Z,12.00
2019-04-30T21:06:50.286Z,11.80
2019-04-30T21:09:19.589Z,11.70
2019-04-30T21:11:49.048Z,11.70
2019-04-30T21:14:19.270Z,11.70
2019-04-30T21:16:48.666Z,11.80
2019-04-30T21:19:18.034Z,11.80
2019-04-30T21:21:47.221Z,11.80
2019-04-30T21:24:16.446Z,11.60
2019-04-30T21:26:45.688Z,11.50
2019-04-30T21:29:16.053Z,11.50
2019-04-30T21:32:21.169Z,11.60
2019-04-30T21:35:09.115Z,11.60
2019-04-30T21:37:38.333Z,11.70
2019-04-30T21:40:09.747Z,11.70
2019-04-30T21:42:38.374Z,11.60
2019-04-30T21:45:07.661Z,11.70
2019-04-30T21:47:36.821Z,11.70
2019-04-30T21:50:06.065Z,11.60
2019-04-30T21:52:35.249Z,11.70
2019-04-30T21:55:04.473Z,11.60
2019-04-30T21:57:33.570Z,11.60
2019-04-30T22:00:02.758Z,11.60
2019-04-30T22:02:32.098Z,11.60
2019-04-30T22:05:02.317Z,11.60
2019-04-30T22:07:31.494Z,11.70
2019-04-30T22:10:00.701Z,11.70
2019-04-30T22:12:31.171Z,11.70
2019-04-30T22:15:00.721Z,11.70
2019-04-30T22:17:29.909Z,11.70
2019-04-30T22:19:59.657Z,11.70
2019-04-30T22:22:29.215Z,11.70
2019-04-30T22:24:59.711Z,11.80
2019-04-30T22:27:29.089Z,11.70
2019-04-30T22:29:58.279Z,11.70
2019-04-30T22:32:27.486Z,11.70
2019-04-30T22:34:58.250Z,11.80
2019-04-30T22:37:27.350Z,11.80
2019-04-30T22:40:02.953Z,11.90
2019-04-30T22:42:33.106Z,11.90
2019-04-30T22:45:02.474Z,12.00
2019-04-30T22:47:31.690Z,11.90
2019-04-30T22:50:00.862Z,12.00
2019-04-30T22:52:30.031Z,12.00
2019-04-30T22:54:59.237Z,12.00
2019-04-30T22:57:28.422Z,12.00
2019-04-30T22:59:57.621Z,12.00
2019-04-30T23:02:45.673Z,12.00
2019-04-30T23:05:15.855Z,12.00
2019-04-30T23:07:45.037Z,12.00
2019-04-30T23:10:14.246Z,12.00
2019-04-30T23:12:43.494Z,12.00
2019-04-30T23:15:12.629Z,12.00
2019-04-30T23:17:41.879Z,11.90
2019-04-30T23:20:11.345Z,12.00
2019-04-30T23:22:40.529Z,12.00
2019-04-30T23:25:09.845Z,12.00
2019-04-30T23:27:39.022Z,12.00
2019-04-30T23:30:08.238Z,11.90
2019-04-30T23:32:37.478Z,12.00
2019-04-30T23:35:06.649Z,11.90
2019-04-30T23:37:35.829Z,11.90
2019-04-30T23:40:24.961Z,11.90
2019-04-30T23:42:54.249Z,11.90
2019-04-30T23:45:23.447Z,11.90
2019-04-30T23:47:52.713Z,11.90
2019-04-30T23:50:21.881Z,11.90
2019-04-30T23:52:51.057Z,11.80
2019-04-30T23:55:20.369Z,11.80
2019-04-30T23:57:49.625Z,11.80
